sensor_id;sensor_type;location;lat;lon;timestamp;pressure;altitude;pressure_sealevel;temperature;humidity
47883;BME280;37739;50.350;7.578;2023-04-26T00:01:21;99953.78;;;6.53;60.01
47883;BME280;37739;50.350;7.578;2023-04-26T00:03:46;99954.19;;;6.61;60.21
47883;BME280;37739;50.350;7.578;2023-04-26T00:06:14;99956.19;;;6.66;60.14
47883;BME280;37739;50.350;7.578;2023-04-26T00:08:42;99960.53;;;6.53;60.35
47883;BME280;37739;50.350;7.578;2023-04-26T00:11:08;99960.03;;;6.43;60.53
47883;BME280;37739;50.350;7.578;2023-04-26T00:13:36;99958.97;;;6.55;60.48
47883;BME280;37739;50.350;7.578;2023-04-26T00:16:03;99967.66;;;6.58;60.75
47883;BME280;37739;50.350;7.578;2023-04-26T00:18:28;99965.09;;;6.58;60.35
47883;BME280;37739;50.350;7.578;2023-04-26T00:20:54;99966.59;;;6.55;60.87
47883;BME280;37739;50.350;7.578;2023-04-26T00:23:19;99966.44;;;6.52;60.94
47883;BME280;37739;50.350;7.578;2023-04-26T00:25:45;99966.97;;;6.46;61.20
47883;BME280;37739;50.350;7.578;2023-04-26T00:28:10;99972.88;;;6.45;61.17
47883;BME280;37739;50.350;7.578;2023-04-26T00:30:35;99959.94;;;6.42;61.64
47883;BME280;37739;50.350;7.578;2023-04-26T00:33:05;99965.03;;;6.42;61.48
47883;BME280;37739;50.350;7.578;2023-04-26T00:35:33;99960.22;;;6.32;61.73
47883;BME280;37739;50.350;7.578;2023-04-26T00:37:58;99960.13;;;6.30;61.64
47883;BME280;37739;50.350;7.578;2023-04-26T00:40:23;99963.41;;;6.27;61.71
47883;BME280;37739;50.350;7.578;2023-04-26T00:42:56;99967.44;;;6.24;62.35
47883;BME280;37739;50.350;7.578;2023-04-26T00:45:21;99963.31;;;6.26;61.77
47883;BME280;37739;50.350;7.578;2023-04-26T00:47:47;99958.97;;;6.25;61.85
47883;BME280;37739;50.350;7.578;2023-04-26T00:50:14;99959.31;;;6.31;61.53
47883;BME280;37739;50.350;7.578;2023-04-26T00:52:44;99949.94;;;6.30;61.44
47883;BME280;37739;50.350;7.578;2023-04-26T00:55:14;99943.88;;;6.28;61.42
47883;BME280;37739;50.350;7.578;2023-04-26T00:57:40;99953.78;;;6.23;61.90
47883;BME280;37739;50.350;7.578;2023-04-26T01:00:06;99954.69;;;6.24;61.50
47883;BME280;37739;50.350;7.578;2023-04-26T01:02:34;99944.22;;;6.19;61.91
47883;BME280;37739;50.350;7.578;2023-04-26T01:04:59;99942.47;;;6.18;61.79
47883;BME280;37739;50.350;7.578;2023-04-26T01:07:27;99943.44;;;6.20;61.48
47883;BME280;37739;50.350;7.578;2023-04-26T01:09:54;99947.59;;;6.18;61.88
47883;BME280;37739;50.350;7.578;2023-04-26T01:12:20;99948.44;;;6.19;61.85
47883;BME280;37739;50.350;7.578;2023-04-26T01:14:52;99948.63;;;6.22;61.59
47883;BME280;37739;50.350;7.578;2023-04-26T01:17:18;99956.00;;;6.17;61.66
47883;BME280;37739;50.350;7.578;2023-04-26T01:19:52;99953.88;;;6.10;61.95
47883;BME280;37739;50.350;7.578;2023-04-26T01:22:18;99947.56;;;6.03;62.23
47883;BME280;37739;50.350;7.578;2023-04-26T01:24:49;99954.06;;;5.98;62.68
47883;BME280;37739;50.350;7.578;2023-04-26T01:27:15;99953.69;;;5.92;62.90
47883;BME280;37739;50.350;7.578;2023-04-26T01:29:41;99952.81;;;5.92;62.99
47883;BME280;37739;50.350;7.578;2023-04-26T01:32:07;99946.66;;;5.88;62.79
47883;BME280;37739;50.350;7.578;2023-04-26T01:34:32;99953.09;;;5.81;62.98
47883;BME280;37739;50.350;7.578;2023-04-26T01:36:59;99941.75;;;5.76;63.54
47883;BME280;37739;50.350;7.578;2023-04-26T01:39:28;99946.72;;;5.75;63.69
47883;BME280;37739;50.350;7.578;2023-04-26T01:41:56;99942.44;;;5.74;63.58
47883;BME280;37739;50.350;7.578;2023-04-26T01:44:25;99951.81;;;5.75;63.60
47883;BME280;37739;50.350;7.578;2023-04-26T01:46:52;99946.28;;;5.67;63.14
47883;BME280;37739;50.350;7.578;2023-04-26T01:49:17;99946.09;;;5.64;63.63
47883;BME280;37739;50.350;7.578;2023-04-26T01:51:43;99949.34;;;5.61;64.19
47883;BME280;37739;50.350;7.578;2023-04-26T01:54:10;99950.38;;;5.50;64.33
47883;BME280;37739;50.350;7.578;2023-04-26T01:56:36;99946.69;;;5.45;64.49
47883;BME280;37739;50.350;7.578;2023-04-26T01:59:01;99945.13;;;5.47;64.45
47883;BME280;37739;50.350;7.578;2023-04-26T02:01:31;99946.41;;;5.40;64.82
47883;BME280;37739;50.350;7.578;2023-04-26T02:03:59;99946.31;;;5.39;65.42
47883;BME280;37739;50.350;7.578;2023-04-26T02:06:24;99942.78;;;5.37;65.70
47883;BME280;37739;50.350;7.578;2023-04-26T02:08:51;99943.50;;;5.34;65.56
47883;BME280;37739;50.350;7.578;2023-04-26T02:11:16;99938.81;;;5.27;66.13
47883;BME280;37739;50.350;7.578;2023-04-26T02:13:44;99941.19;;;5.24;66.31
47883;BME280;37739;50.350;7.578;2023-04-26T02:16:09;99941.00;;;5.21;65.58
47883;BME280;37739;50.350;7.578;2023-04-26T02:18:42;99937.38;;;5.17;66.42
47883;BME280;37739;50.350;7.578;2023-04-26T02:21:10;99942.47;;;5.17;66.00
47883;BME280;37739;50.350;7.578;2023-04-26T02:23:40;99943.94;;;5.14;66.06
47883;BME280;37739;50.350;7.578;2023-04-26T02:26:08;99943.94;;;5.14;66.60
47883;BME280;37739;50.350;7.578;2023-04-26T02:28:36;99944.56;;;5.09;65.93
47883;BME280;37739;50.350;7.578;2023-04-26T02:31:01;99942.97;;;5.11;65.98
47883;BME280;37739;50.350;7.578;2023-04-26T02:33:27;99946.50;;;5.14;65.92
47883;BME280;37739;50.350;7.578;2023-04-26T02:35:52;99939.47;;;5.09;66.16
47883;BME280;37739;50.350;7.578;2023-04-26T02:38:20;99942.72;;;5.07;66.72
47883;BME280;37739;50.350;7.578;2023-04-26T02:40:50;99952.00;;;5.06;66.51
47883;BME280;37739;50.350;7.578;2023-04-26T02:43:21;99947.81;;;5.07;66.40
47883;BME280;37739;50.350;7.578;2023-04-26T02:45:46;99947.59;;;5.04;66.21
47883;BME280;37739;50.350;7.578;2023-04-26T02:48:14;99939.91;;;5.02;66.70
47883;BME280;37739;50.350;7.578;2023-04-26T02:50:42;99943.91;;;4.99;66.69
47883;BME280;37739;50.350;7.578;2023-04-26T02:53:07;99948.81;;;4.96;66.70
47883;BME280;37739;50.350;7.578;2023-04-26T02:55:32;99942.47;;;4.89;67.26
47883;BME280;37739;50.350;7.578;2023-04-26T02:57:58;99948.81;;;4.82;67.09
47883;BME280;37739;50.350;7.578;2023-04-26T03:00:23;99948.81;;;4.82;67.28
47883;BME280;37739;50.350;7.578;2023-04-26T03:02:51;99949.53;;;4.80;67.45
47883;BME280;37739;50.350;7.578;2023-04-26T03:05:17;99948.72;;;4.81;66.74
47883;BME280;37739;50.350;7.578;2023-04-26T03:07:42;99944.06;;;4.74;67.33
47883;BME280;37739;50.350;7.578;2023-04-26T03:10:08;99950.63;;;4.70;67.52
47883;BME280;37739;50.350;7.578;2023-04-26T03:12:33;99953.81;;;4.67;67.46
47883;BME280;37739;50.350;7.578;2023-04-26T03:14:59;99946.78;;;4.63;68.23
47883;BME280;37739;50.350;7.578;2023-04-26T03:17:27;99955.22;;;4.62;67.85
47883;BME280;37739;50.350;7.578;2023-04-26T03:19:55;99956.69;;;4.59;68.33
47883;BME280;37739;50.350;7.578;2023-04-26T03:22:20;99945.22;;;4.52;68.35
47883;BME280;37739;50.350;7.578;2023-04-26T03:24:48;99951.59;;;4.45;68.45
47883;BME280;37739;50.350;7.578;2023-04-26T03:27:13;99951.50;;;4.44;68.49
47883;BME280;37739;50.350;7.578;2023-04-26T03:29:41;99955.50;;;4.40;68.62
47883;BME280;37739;50.350;7.578;2023-04-26T03:32:08;99944.47;;;4.40;69.40
47883;BME280;37739;50.350;7.578;2023-04-26T03:34:34;99950.13;;;4.36;68.83
47883;BME280;37739;50.350;7.578;2023-04-26T03:37:01;99952.69;;;4.36;69.05
47883;BME280;37739;50.350;7.578;2023-04-26T03:39:27;99942.41;;;4.34;69.32
47883;BME280;37739;50.350;7.578;2023-04-26T03:41:52;99945.81;;;4.35;68.65
47883;BME280;37739;50.350;7.578;2023-04-26T03:44:20;99939.66;;;4.31;68.92
47883;BME280;37739;50.350;7.578;2023-04-26T03:46:45;99935.28;;;4.28;69.01
47883;BME280;37739;50.350;7.578;2023-04-26T03:49:13;99935.19;;;4.27;69.54
47883;BME280;37739;50.350;7.578;2023-04-26T03:51:38;99925.13;;;4.28;68.87
47883;BME280;37739;50.350;7.578;2023-04-26T03:54:04;99932.56;;;4.25;68.68
47883;BME280;37739;50.350;7.578;2023-04-26T03:56:29;99939.00;;;4.20;69.41
47883;BME280;37739;50.350;7.578;2023-04-26T03:58:54;99936.13;;;4.16;69.42
47883;BME280;37739;50.350;7.578;2023-04-26T04:01:24;99931.66;;;4.11;70.02
47883;BME280;37739;50.350;7.578;2023-04-26T04:03:50;99935.84;;;4.11;69.58
47883;BME280;37739;50.350;7.578;2023-04-26T04:06:17;99935.66;;;4.08;69.25
47883;BME280;37739;50.350;7.578;2023-04-26T04:08:45;99936.34;;;4.05;69.96
47883;BME280;37739;50.350;7.578;2023-04-26T04:11:11;99938.09;;;4.06;69.62
47883;BME280;37739;50.350;7.578;2023-04-26T04:13:36;99942.28;;;4.06;69.60
47883;BME280;37739;50.350;7.578;2023-04-26T04:16:04;99943.19;;;4.06;69.52
47883;BME280;37739;50.350;7.578;2023-04-26T04:18:29;99940.34;;;4.02;69.77
47883;BME280;37739;50.350;7.578;2023-04-26T04:20:55;99943.84;;;4.04;69.98
47883;BME280;37739;50.350;7.578;2023-04-26T04:23:20;99950.31;;;3.99;70.64
47883;BME280;37739;50.350;7.578;2023-04-26T04:25:47;99954.47;;;3.98;69.46
47883;BME280;37739;50.350;7.578;2023-04-26T04:28:13;99953.22;;;3.91;70.02
47883;BME280;37739;50.350;7.578;2023-04-26T04:30:42;99955.25;;;3.84;70.11
47883;BME280;37739;50.350;7.578;2023-04-26T04:33:08;99952.50;;;3.81;70.71
47883;BME280;37739;50.350;7.578;2023-04-26T04:35:33;99965.56;;;3.73;71.00
47883;BME280;37739;50.350;7.578;2023-04-26T04:38:01;99967.78;;;3.69;71.52
47883;BME280;37739;50.350;7.578;2023-04-26T04:40:30;99973.72;;;3.69;71.38
47883;BME280;37739;50.350;7.578;2023-04-26T04:42:56;99972.84;;;3.69;70.54
47883;BME280;37739;50.350;7.578;2023-04-26T04:45:21;99982.81;;;3.66;70.69
47883;BME280;37739;50.350;7.578;2023-04-26T04:47:49;99975.56;;;3.59;71.54
47883;BME280;37739;50.350;7.578;2023-04-26T04:50:14;99974.69;;;3.58;71.06
47883;BME280;37739;50.350;7.578;2023-04-26T04:52:45;99983.66;;;3.53;71.56
47883;BME280;37739;50.350;7.578;2023-04-26T04:55:18;99981.09;;;3.53;71.74
47883;BME280;37739;50.350;7.578;2023-04-26T04:57:43;99983.88;;;3.56;71.49
47883;BME280;37739;50.350;7.578;2023-04-26T05:00:09;99986.19;;;3.53;72.21
47883;BME280;37739;50.350;7.578;2023-04-26T05:02:37;99987.16;;;3.55;72.03
47883;BME280;37739;50.350;7.578;2023-04-26T05:05:05;99987.38;;;3.58;71.85
47883;BME280;37739;50.350;7.578;2023-04-26T05:07:33;99992.53;;;3.60;72.14
47883;BME280;37739;50.350;7.578;2023-04-26T05:09:59;99995.41;;;3.64;72.14
47883;BME280;37739;50.350;7.578;2023-04-26T05:12:25;99988.88;;;3.68;71.79
47883;BME280;37739;50.350;7.578;2023-04-26T05:14:50;99989.06;;;3.71;72.26
47883;BME280;37739;50.350;7.578;2023-04-26T05:17:18;99996.09;;;3.75;71.91
47883;BME280;37739;50.350;7.578;2023-04-26T05:19:48;99997.19;;;3.79;71.62
47883;BME280;37739;50.350;7.578;2023-04-26T05:22:13;99994.19;;;3.84;71.74
47883;BME280;37739;50.350;7.578;2023-04-26T05:24:46;99998.59;;;3.87;71.46
47883;BME280;37739;50.350;7.578;2023-04-26T05:27:12;99998.09;;;3.92;71.49
47883;BME280;37739;50.350;7.578;2023-04-26T05:29:40;99998.91;;;3.91;71.59
47883;BME280;37739;50.350;7.578;2023-04-26T05:32:06;100009.28;;;3.95;71.65
47883;BME280;37739;50.350;7.578;2023-04-26T05:34:31;100011.41;;;4.02;71.52
47883;BME280;37739;50.350;7.578;2023-04-26T05:36:57;100019.25;;;4.05;71.06
47883;BME280;37739;50.350;7.578;2023-04-26T05:39:22;100018.28;;;4.16;71.55
47883;BME280;37739;50.350;7.578;2023-04-26T05:41:49;100025.00;;;4.16;71.16
47883;BME280;37739;50.350;7.578;2023-04-26T05:44:18;100025.44;;;4.22;71.16
47883;BME280;37739;50.350;7.578;2023-04-26T05:46:45;100032.78;;;4.30;71.02
47883;BME280;37739;50.350;7.578;2023-04-26T05:49:13;100030.63;;;4.37;70.84
47883;BME280;37739;50.350;7.578;2023-04-26T05:51:41;100029.00;;;4.37;70.42
47883;BME280;37739;50.350;7.578;2023-04-26T05:54:06;100031.13;;;4.44;70.18
47883;BME280;37739;50.350;7.578;2023-04-26T05:56:32;100038.09;;;4.47;70.09
47883;BME280;37739;50.350;7.578;2023-04-26T05:58:59;100040.13;;;4.52;70.40
47883;BME280;37739;50.350;7.578;2023-04-26T06:01:25;100039.34;;;4.53;71.05
47883;BME280;37739;50.350;7.578;2023-04-26T06:03:50;100038.88;;;4.59;70.13
47883;BME280;37739;50.350;7.578;2023-04-26T06:06:15;100041.78;;;4.65;70.42
47883;BME280;37739;50.350;7.578;2023-04-26T06:08:41;100033.50;;;4.68;69.84
47883;BME280;37739;50.350;7.578;2023-04-26T06:11:07;100034.59;;;4.71;69.71
47883;BME280;37739;50.350;7.578;2023-04-26T06:13:34;100035.47;;;4.72;69.71
47883;BME280;37739;50.350;7.578;2023-04-26T06:16:02;100041.78;;;4.65;70.73
47883;BME280;37739;50.350;7.578;2023-04-26T06:18:27;100049.31;;;4.77;70.17
47883;BME280;37739;50.350;7.578;2023-04-26T06:20:55;100044.81;;;4.86;69.75
47883;BME280;37739;50.350;7.578;2023-04-26T06:23:22;100042.38;;;4.88;69.42
47883;BME280;37739;50.350;7.578;2023-04-26T06:25:52;100039.06;;;4.89;69.68
47883;BME280;37739;50.350;7.578;2023-04-26T06:28:17;100043.19;;;4.74;70.26
47883;BME280;37739;50.350;7.578;2023-04-26T06:30:43;100037.50;;;4.64;70.72
47883;BME280;37739;50.350;7.578;2023-04-26T06:33:08;100037.03;;;4.70;71.54
47883;BME280;37739;50.350;7.578;2023-04-26T06:35:40;100042.50;;;4.76;71.24
47883;BME280;37739;50.350;7.578;2023-04-26T06:38:08;100043.09;;;4.85;70.78
47883;BME280;37739;50.350;7.578;2023-04-26T06:40:34;100045.31;;;4.81;70.81
47883;BME280;37739;50.350;7.578;2023-04-26T06:43:02;100050.13;;;4.89;70.90
47883;BME280;37739;50.350;7.578;2023-04-26T06:45:28;100053.03;;;4.96;70.75
47883;BME280;37739;50.350;7.578;2023-04-26T06:47:56;100050.78;;;5.00;70.78
47883;BME280;37739;50.350;7.578;2023-04-26T06:50:21;100049.13;;;5.01;70.39
47883;BME280;37739;50.350;7.578;2023-04-26T06:52:49;100055.69;;;5.10;70.90
47883;BME280;37739;50.350;7.578;2023-04-26T06:55:15;100051.06;;;5.31;69.81
47883;BME280;37739;50.350;7.578;2023-04-26T06:57:40;100060.53;;;5.34;70.50
47883;BME280;37739;50.350;7.578;2023-04-26T07:00:06;100053.88;;;5.23;70.40
47883;BME280;37739;50.350;7.578;2023-04-26T07:02:33;100048.63;;;5.20;70.98
47883;BME280;37739;50.350;7.578;2023-04-26T07:05:01;100045.63;;;5.40;70.63
47883;BME280;37739;50.350;7.578;2023-04-26T07:07:26;100045.78;;;5.57;70.48
47883;BME280;37739;50.350;7.578;2023-04-26T07:09:54;100045.00;;;5.58;70.06
47883;BME280;37739;50.350;7.578;2023-04-26T07:12:24;100055.00;;;5.55;69.92
47883;BME280;37739;50.350;7.578;2023-04-26T07:14:49;100051.84;;;5.59;69.67
47883;BME280;37739;50.350;7.578;2023-04-26T07:17:17;100044.34;;;5.47;70.53
47883;BME280;37739;50.350;7.578;2023-04-26T07:19:42;100053.22;;;5.54;70.50
47883;BME280;37739;50.350;7.578;2023-04-26T07:22:07;100044.78;;;5.83;69.58
47883;BME280;37739;50.350;7.578;2023-04-26T07:24:33;100049.34;;;6.02;69.11
47883;BME280;37739;50.350;7.578;2023-04-26T07:27:01;100048.31;;;6.13;68.38
47883;BME280;37739;50.350;7.578;2023-04-26T07:29:28;100039.91;;;6.14;68.68
47883;BME280;37739;50.350;7.578;2023-04-26T07:31:54;100043.94;;;6.25;68.55
47883;BME280;37739;50.350;7.578;2023-04-26T07:34:21;100041.22;;;6.52;68.10
47883;BME280;37739;50.350;7.578;2023-04-26T07:36:46;100043.75;;;6.82;66.93
47883;BME280;37739;50.350;7.578;2023-04-26T07:39:14;100042.59;;;6.92;66.20
47883;BME280;37739;50.350;7.578;2023-04-26T07:41:39;100037.91;;;6.99;65.05
47883;BME280;37739;50.350;7.578;2023-04-26T07:44:05;100032.91;;;7.17;65.12
47883;BME280;37739;50.350;7.578;2023-04-26T07:46:33;100034.50;;;7.15;63.94
47883;BME280;37739;50.350;7.578;2023-04-26T07:49:01;100039.63;;;7.00;65.11
47883;BME280;37739;50.350;7.578;2023-04-26T07:51:27;100035.44;;;7.01;65.30
47883;BME280;37739;50.350;7.578;2023-04-26T07:53:54;100028.44;;;7.13;65.45
47883;BME280;37739;50.350;7.578;2023-04-26T07:56:20;100028.97;;;7.39;64.67
47883;BME280;37739;50.350;7.578;2023-04-26T07:58:48;100032.66;;;7.44;63.13
47883;BME280;37739;50.350;7.578;2023-04-26T08:01:13;100032.44;;;7.72;62.52
47883;BME280;37739;50.350;7.578;2023-04-26T08:03:44;100030.91;;;7.76;62.03
47883;BME280;37739;50.350;7.578;2023-04-26T08:06:13;100040.53;;;7.98;61.59
47883;BME280;37739;50.350;7.578;2023-04-26T08:08:38;100035.19;;;8.10;61.32
47883;BME280;37739;50.350;7.578;2023-04-26T08:11:08;100047.13;;;8.27;60.08
47883;BME280;37739;50.350;7.578;2023-04-26T08:13:37;100036.50;;;8.19;59.98
47883;BME280;37739;50.350;7.578;2023-04-26T08:16:02;100040.94;;;8.05;59.17
47883;BME280;37739;50.350;7.578;2023-04-26T08:18:27;100043.00;;;8.13;59.89
47883;BME280;37739;50.350;7.578;2023-04-26T08:20:55;100040.41;;;8.29;59.32
47883;BME280;37739;50.350;7.578;2023-04-26T08:23:23;100041.28;;;8.46;59.27
47883;BME280;37739;50.350;7.578;2023-04-26T08:25:54;100041.81;;;8.57;57.84
47883;BME280;37739;50.350;7.578;2023-04-26T08:28:22;100036.34;;;8.49;57.17
47883;BME280;37739;50.350;7.578;2023-04-26T08:30:50;100044.72;;;8.47;57.22
47883;BME280;37739;50.350;7.578;2023-04-26T08:33:18;100043.13;;;8.67;57.22
47883;BME280;37739;50.350;7.578;2023-04-26T08:35:43;100038.75;;;9.00;57.34
47883;BME280;37739;50.350;7.578;2023-04-26T08:38:09;100039.63;;;9.18;57.04
47883;BME280;37739;50.350;7.578;2023-04-26T08:40:35;100027.69;;;9.19;55.98
47883;BME280;37739;50.350;7.578;2023-04-26T08:43:00;100029.38;;;9.00;55.16
47883;BME280;37739;50.350;7.578;2023-04-26T08:45:28;100034.78;;;8.89;54.95
47883;BME280;37739;50.350;7.578;2023-04-26T08:48:03;100038.47;;;8.76;54.58
47883;BME280;37739;50.350;7.578;2023-04-26T08:50:32;100039.91;;;8.53;54.43
47883;BME280;37739;50.350;7.578;2023-04-26T08:53:03;100029.16;;;8.60;55.34
47883;BME280;37739;50.350;7.578;2023-04-26T08:55:32;100023.47;;;8.65;55.17
47883;BME280;37739;50.350;7.578;2023-04-26T08:58:00;100025.22;;;8.84;55.60
47883;BME280;37739;50.350;7.578;2023-04-26T09:00:28;100018.38;;;9.21;54.99
47883;BME280;37739;50.350;7.578;2023-04-26T09:02:54;100010.94;;;9.08;53.08
47883;BME280;37739;50.350;7.578;2023-04-26T09:05:22;100010.09;;;9.07;53.33
47883;BME280;37739;50.350;7.578;2023-04-26T09:07:59;100009.69;;;9.17;54.30
47883;BME280;37739;50.350;7.578;2023-04-26T09:10:27;100010.53;;;9.36;53.40
47883;BME280;37739;50.350;7.578;2023-04-26T09:12:54;100010.00;;;9.43;53.75
47883;BME280;37739;50.350;7.578;2023-04-26T09:15:21;100012.97;;;9.52;53.69
47883;BME280;37739;50.350;7.578;2023-04-26T09:17:47;100012.44;;;9.59;53.19
47883;BME280;37739;50.350;7.578;2023-04-26T09:20:26;100003.25;;;9.84;51.85
47883;BME280;37739;50.350;7.578;2023-04-26T09:23:04;100000.28;;;9.94;48.91
47883;BME280;37739;50.350;7.578;2023-04-26T09:25:30;100006.00;;;9.89;49.49
47883;BME280;37739;50.350;7.578;2023-04-26T09:27:59;100008.25;;;9.61;49.88
47883;BME280;37739;50.350;7.578;2023-04-26T09:30:26;99999.88;;;9.85;50.99
47883;BME280;37739;50.350;7.578;2023-04-26T09:32:59;100005.78;;;10.03;50.31
47883;BME280;37739;50.350;7.578;2023-04-26T09:35:40;100003.88;;;10.19;48.43
47883;BME280;37739;50.350;7.578;2023-04-26T09:38:16;100004.94;;;10.44;50.03
47883;BME280;37739;50.350;7.578;2023-04-26T09:40:45;99998.53;;;10.55;49.56
47883;BME280;37739;50.350;7.578;2023-04-26T09:43:13;100010.75;;;10.60;49.39
47883;BME280;37739;50.350;7.578;2023-04-26T09:45:57;100002.53;;;10.48;47.11
47883;BME280;37739;50.350;7.578;2023-04-26T09:48:32;100002.44;;;10.45;47.64
47883;BME280;37739;50.350;7.578;2023-04-26T09:51:09;99998.88;;;10.64;46.62
47883;BME280;37739;50.350;7.578;2023-04-26T09:53:44;99997.16;;;10.42;47.24
47883;BME280;37739;50.350;7.578;2023-04-26T09:56:15;99994.97;;;10.30;48.05
47883;BME280;37739;50.350;7.578;2023-04-26T10:01:10;99987.09;;;10.27;47.69
47883;BME280;37739;50.350;7.578;2023-04-26T10:03:38;99990.78;;;10.32;47.49
47883;BME280;37739;50.350;7.578;2023-04-26T10:06:07;99997.09;;;10.61;48.11
47883;BME280;37739;50.350;7.578;2023-04-26T10:08:35;99987.50;;;10.78;46.74
47883;BME280;37739;50.350;7.578;2023-04-26T10:11:02;99986.56;;;10.76;46.04
47883;BME280;37739;50.350;7.578;2023-04-26T10:13:30;99976.81;;;10.90;46.12
47883;BME280;37739;50.350;7.578;2023-04-26T10:16:01;99977.06;;;11.43;46.68
47883;BME280;37739;50.350;7.578;2023-04-26T10:18:27;99971.84;;;11.17;44.90
47883;BME280;37739;50.350;7.578;2023-04-26T10:20:57;99970.84;;;11.36;45.48
47883;BME280;37739;50.350;7.578;2023-04-26T10:23:26;99973.41;;;11.36;43.96
47883;BME280;37739;50.350;7.578;2023-04-26T10:25:54;99968.22;;;11.35;43.53
47883;BME280;37739;50.350;7.578;2023-04-26T10:31:10;99965.19;;;11.47;43.54
47883;BME280;37739;50.350;7.578;2023-04-26T10:33:37;99966.75;;;11.42;44.75
47883;BME280;37739;50.350;7.578;2023-04-26T10:36:08;99957.59;;;11.74;44.90
47883;BME280;37739;50.350;7.578;2023-04-26T10:38:35;99958.97;;;12.40;41.69
47883;BME280;37739;50.350;7.578;2023-04-26T10:41:26;99953.28;;;12.23;42.30
47883;BME280;37739;50.350;7.578;2023-04-26T10:43:57;99957.06;;;12.07;43.02
47883;BME280;37739;50.350;7.578;2023-04-26T10:46:34;99946.56;;;12.28;41.63
47883;BME280;37739;50.350;7.578;2023-04-26T10:49:14;99945.03;;;12.33;41.00
47883;BME280;37739;50.350;7.578;2023-04-26T10:52:10;99940.66;;;12.57;41.42
47883;BME280;37739;50.350;7.578;2023-04-26T10:54:58;99946.75;;;12.07;40.41
47883;BME280;37739;50.350;7.578;2023-04-26T10:57:52;99951.81;;;12.31;41.02
47883;BME280;37739;50.350;7.578;2023-04-26T11:00:24;99941.94;;;12.99;40.54
47883;BME280;37739;50.350;7.578;2023-04-26T11:02:58;99943.56;;;13.27;40.87
47883;BME280;37739;50.350;7.578;2023-04-26T11:05:41;99942.88;;;13.31;38.87
47883;BME280;37739;50.350;7.578;2023-04-26T11:10:57;99926.25;;;13.22;38.53
47883;BME280;37739;50.350;7.578;2023-04-26T11:13:23;99930.53;;;13.51;39.92
47883;BME280;37739;50.350;7.578;2023-04-26T11:15:59;99926.91;;;13.77;38.88
47883;BME280;37739;50.350;7.578;2023-04-26T11:18:28;99929.41;;;13.73;38.55
47883;BME280;37739;50.350;7.578;2023-04-26T11:20:57;99929.03;;;13.93;40.07
47883;BME280;37739;50.350;7.578;2023-04-26T11:23:27;99920.00;;;14.10;39.64
47883;BME280;37739;50.350;7.578;2023-04-26T11:31:05;99916.63;;;12.57;40.26
47883;BME280;37739;50.350;7.578;2023-04-26T11:33:33;99915.56;;;12.79;41.36
47883;BME280;37739;50.350;7.578;2023-04-26T11:36:01;99910.13;;;12.99;40.58
47883;BME280;37739;50.350;7.578;2023-04-26T11:38:27;99914.53;;;13.03;39.81
47883;BME280;37739;50.350;7.578;2023-04-26T11:43:26;99916.44;;;13.70;38.87
47883;BME280;37739;50.350;7.578;2023-04-26T11:45:58;99920.00;;;13.75;38.06
47883;BME280;37739;50.350;7.578;2023-04-26T11:48:29;99911.38;;;13.11;38.27
47883;BME280;37739;50.350;7.578;2023-04-26T11:50:58;99912.66;;;12.97;39.54
47883;BME280;37739;50.350;7.578;2023-04-26T11:53:24;99907.78;;;13.06;39.80
47883;BME280;37739;50.350;7.578;2023-04-26T11:56:01;99910.50;;;13.11;39.45
47883;BME280;37739;50.350;7.578;2023-04-26T11:58:27;99913.66;;;13.31;39.70
47883;BME280;37739;50.350;7.578;2023-04-26T12:00:59;99904.28;;;13.04;38.75
47883;BME280;37739;50.350;7.578;2023-04-26T12:03:33;99907.34;;;13.21;39.38
47883;BME280;37739;50.350;7.578;2023-04-26T12:06:02;99906.84;;;13.65;38.97
47883;BME280;37739;50.350;7.578;2023-04-26T12:08:33;99906.94;;;13.36;38.25
47883;BME280;37739;50.350;7.578;2023-04-26T12:11:00;99901.13;;;13.77;38.71
47883;BME280;37739;50.350;7.578;2023-04-26T12:13:29;99907.63;;;13.96;37.84
47883;BME280;37739;50.350;7.578;2023-04-26T12:15:55;99906.00;;;14.01;37.98
47883;BME280;37739;50.350;7.578;2023-04-26T12:18:20;99908.78;;;14.07;37.67
47883;BME280;37739;50.350;7.578;2023-04-26T12:20:47;99904.00;;;13.89;37.76
47883;BME280;37739;50.350;7.578;2023-04-26T12:23:14;99896.03;;;13.78;38.30
47883;BME280;37739;50.350;7.578;2023-04-26T12:25:50;99905.25;;;14.03;37.89
47883;BME280;37739;50.350;7.578;2023-04-26T12:28:18;99898.09;;;13.93;36.91
47883;BME280;37739;50.350;7.578;2023-04-26T12:30:44;99895.31;;;14.20;37.85
47883;BME280;37739;50.350;7.578;2023-04-26T12:33:09;99893.97;;;14.74;37.32
47883;BME280;37739;50.350;7.578;2023-04-26T12:35:35;99884.25;;;14.24;36.03
47883;BME280;37739;50.350;7.578;2023-04-26T12:38:00;99889.50;;;13.92;36.64
47883;BME280;37739;50.350;7.578;2023-04-26T12:40:31;99884.97;;;14.19;37.78
47883;BME280;37739;50.350;7.578;2023-04-26T12:42:59;99884.25;;;14.24;37.62
47883;BME280;37739;50.350;7.578;2023-04-26T12:45:25;99884.03;;;14.53;36.70
47883;BME280;37739;50.350;7.578;2023-04-26T12:47:53;99885.72;;;14.90;36.02
47883;BME280;37739;50.350;7.578;2023-04-26T12:50:19;99880.22;;;13.99;36.99
47883;BME280;37739;50.350;7.578;2023-04-26T12:52:47;99880.88;;;13.92;36.78
47883;BME280;37739;50.350;7.578;2023-04-26T12:55:13;99884.44;;;13.97;38.22
47883;BME280;37739;50.350;7.578;2023-04-26T12:57:43;99881.50;;;14.18;37.08
47883;BME280;37739;50.350;7.578;2023-04-26T13:00:10;99885.50;;;14.05;37.05
47883;BME280;37739;50.350;7.578;2023-04-26T13:02:36;99899.16;;;13.68;36.42
47883;BME280;37739;50.350;7.578;2023-04-26T13:05:02;99900.59;;;13.90;38.03
47883;BME280;37739;50.350;7.578;2023-04-26T13:07:39;99896.06;;;14.52;36.42
47883;BME280;37739;50.350;7.578;2023-04-26T13:10:07;99902.28;;;15.00;35.86
47883;BME280;37739;50.350;7.578;2023-04-26T13:12:34;99894.38;;;14.92;34.18
47883;BME280;37739;50.350;7.578;2023-04-26T13:15:06;99888.50;;;14.22;34.88
47883;BME280;37739;50.350;7.578;2023-04-26T13:17:35;99895.81;;;13.70;37.11
47883;BME280;37739;50.350;7.578;2023-04-26T13:20:04;99901.41;;;13.54;36.72
47883;BME280;37739;50.350;7.578;2023-04-26T13:22:33;99899.91;;;13.30;37.96
47883;BME280;37739;50.350;7.578;2023-04-26T13:24:58;99899.94;;;13.64;37.34